• Join FlightAware (Why Join?)
  • Login
  • US Flag 
07:09PM EST


 

Airport Tracker/Info


-or-


 

Live Flight TrackerFlight Track Log ✈ N459TM ✈ 17-Aug-2012 ✈ KCCO - KBXG

Flight Track Log - Related Links

Times and Time Zones

All times are in EDT time to prevent confusion due to time zone crossing. See the N459TM flight status page for this flight to view local times or setup timezone preferences in your user account.

Time Position Orientation Groundspeed Altitude Reporting Facility
EDT Latitude Longitude Course Direction KTS MPH feet Rate Location/Type
03:10PM 32.5833 -84.5667 157° South 139 160 10,900  Level Atlanta TRACON
03:11PM 32.5500 -84.5500 112° Southeast 143 165 11,100 120 Climbing Atlanta TRACON
03:12PM 32.5333 -84.5000 90° East 151 174 11,200 60 Climbing Atlanta TRACON
03:13PM 32.5333 -84.4500 68° East 156 180 11,300  Climbing Atlanta TRACON
03:14PM 32.5500 -84.4000 68° East 159 183 11,300  Level Atlanta TRACON
03:15PM 32.5667 -84.3500 90° East 164 189 11,300  Level Atlanta TRACON
03:16PM 32.5667 -84.3000 71° East 167 192 11,300  Level Atlanta TRACON
03:17PM 32.5792 -84.2558 78° East 165 190 11,300  Level Atlanta Center
03:18PM 32.5897 -84.1992 71° East 165 190 11,400  Climbing Atlanta Center
03:19PM 32.6044 -84.1472 80° East 165 190 11,400  Level Atlanta Center
03:20PM 32.6128 -84.0931 80° East 165 190 11,400  Level Atlanta Center
03:21PM 32.6211 -84.0364 74° East 165 190 11,400  Level Atlanta Center
03:22PM 32.6336 -83.9844 77° East 160 184 11,400  Level Atlanta Center
03:23PM 32.6442 -83.9303 76° East 160 184 11,400  Level Atlanta Center
03:24PM 32.6544 -83.8808 78° East 160 184 11,400  Level Atlanta Center
03:25PM 32.6647 -83.8242 74° East 160 184 11,400  Level Atlanta Center
03:26PM 32.6772 -83.7722 75° East 160 184 11,400  Level Atlanta Center
03:27PM 32.6897 -83.7181 72° East 160 184 11,400  Level Atlanta Center
03:28PM 32.7042 -83.6661 79° East 160 184 11,400  Level Atlanta Center
03:29PM 32.7122 -83.6167 74° East 160 184 11,400  Level Atlanta Center
03:30PM 32.7247 -83.5647 80° East 160 184 11,400  Level Atlanta Center
03:31PM 32.7328 -83.5081 77° East 165 190 11,400  Level Atlanta Center
03:32PM 32.7431 -83.4536 74° East 160 184 11,400 -60 Level Atlanta Center
03:33PM 32.7553 -83.4017 74° East 160 184 11,300 -60 Descending Atlanta Center
03:34PM 32.7675 -83.3519 77° East 160 184 11,300  Level Atlanta Center
03:35PM 32.7775 -83.3000 77° East 160 184 11,400  Climbing Atlanta Center
03:36PM 32.7878 -83.2481 75° East 160 184 11,300  Descending Atlanta Center
03:37PM 32.7997 -83.1936 74° East 160 184 11,400  Climbing Atlanta Center
03:38PM 32.8119 -83.1442 75° East 160 184 11,400  Level Atlanta Center
03:39PM 32.8222 -83.0969 77° East 160 184 11,400  Level Atlanta Center
03:40PM 32.8322 -83.0450 72° East 160 184 11,400 -300 Level Atlanta Center
03:41PM 32.8464 -82.9931 74° East 160 184 10,800 -600 Descending Atlanta Center
03:42PM 32.8606 -82.9358 74° East 171 197 10,300 -600 Descending Atlanta Center
03:43PM 32.8744 -82.8764 79° East 171 197 9,700 -600 Descending Atlanta Center
03:44PM 32.8844 -82.8169 79° East 171 197 9,200 -600 Descending Atlanta Center
03:45PM 32.8942 -82.7597 91° East 176 203 8,600 -660 Descending Atlanta Center
03:46PM 32.8936 -82.6981 84° East 183 211 7,900 -660 Descending Atlanta Center
03:47PM 32.8992 -82.6386 66° East 183 211 7,300 -720 Descending Atlanta Center
03:48PM 32.9194 -82.5839 74° East 178 205 6,500 -780 Descending Atlanta Center
03:49PM 32.9333 -82.5242 69° East 178 205 5,800 -840 Descending Atlanta Center
03:50PM 32.9514 -82.4669 72° East 178 205 4,900 -900 Descending Atlanta Center
03:51PM 32.9672 -82.4097 76° East 178 205 4,000 -900 Descending Atlanta Center
03:52PM 32.9792 -82.3525 80° East 178 205 3,200 -840 Descending Atlanta Center
04:00PM 33.0333 -82.0000 344° North  Level FlightAware Approximate
04:01PM 33.0820 -82.0164 344° North  Level Estimated